SCRIPT_RESULTS Banner
METAR for LQMO

by Dr. Günther Eichhorn

METAR for LQMO provided by aerobaticsweb.org
Current time: Saturday, 28 May, 2022, 21:05 UTC
(This may take a minute, please be patient)


The most recent METAR observation from LQMO in our system was generated at
2022/05/28 21:00
The observation is:
2022/05/28 21:00
LQMO 282100Z 34006KT 280V080 CAVOK 22/11 Q1006

24 Hour Summary

Time (UTC) Temperature
°C (°F)
Dew Point
°C (°F)
Pressure
Inches (hPa)
Wind
mph (km/h)
Weather
00:00 28 May 17 (62 ) 11 (51 ) 29.85 (1011) Variable 2 (3)
01:00 28 May 17 (62 ) 11 (51 ) 29.85 (1011) Variable 1 (2)
02:00 28 May 18 (64 ) 11 (51 ) 29.83 (1010) Variable 1 (2)
03:00 28 May 18 (64 ) 12 (53 ) 29.83 (1010) Variable 6 (10)
04:00 28 May 18 (64 ) 12 (53 ) 29.83 (1010) ESE 5 (8)
05:00 28 May 20 (68 ) 12 (53 ) 29.83 (1010) NNW 7 (11)
06:00 28 May 22 (71 ) 13 (55 ) 29.80 (1009) S 3 (5)
07:00 28 May 25 (77 ) 12 (53 ) 29.80 (1009) E 6 (10)
08:00 28 May 27 (80 ) 12 (53 ) 29.77 (1008) Variable 2 (3)
09:00 28 May 30 (86 ) 11 (51 ) 29.77 (1008) WSW 5 (8)
10:00 28 May 31 (87 ) 11 (51 ) 29.74 (1007) Variable 5 (8)
11:00 28 May 32 (89 ) 12 (53 ) 29.74 (1007) SE 7 (11)
12:00 28 May 32 (89 ) 11 (51 ) 29.68 (1005) W 6 (10)
13:00 28 May 33 (91 ) 10 (50 ) 29.65 (1004) S 13 (21)
14:00 28 May 30 (86 ) 10 (50 ) 29.68 (1005) SSW 8 (13)
15:00 28 May 30 (86 ) 10 (50 ) 29.68 (1005) S 7 (11)
16:00 28 May 29 (84 ) 10 (50 ) 29.68 (1005) S 7 (11)
17:00 28 May 28 (82 ) 13 (55 ) 29.68 (1005) NNW 8 (13)
18:00 28 May 25 (77 ) 13 (55 ) 29.68 (1005) WNW 7 (11)
19:00 28 May 23 (73 ) 12 (53 ) 29.68 (1005) WNW 13 (21)
20:00 28 May 22 (71 ) 11 (51 ) 29.68 (1005) NW 8 (13)
21:00 28 May 22 (71 ) 11 (51 ) 29.71 (1006) NNW 7 (11)
22:00 27 May 21 (69 ) 11 (51 ) 29.88 (1012) WSW 3 (5)
23:00 27 May 18 (64 ) 11 (51 ) 29.85 (1011) Variable 2 (3)
The information presented here is taken from products produced by the U.S. National Weather Service and other national and international agencies. Landings.com does not present this as official information. Please refer to official weather briefings for flight critical information.


access provided by Dr. Guenther Eichhorn at aerobaticsweb.org